LFPM 191900Z AUTO 33009KT 9999 FEW025/// BKN062/// BKN082/// ///TCU 09/08 Q1018

Les avions qui composent notre flotte

Avion Robin DR400 2+2

L'avion école par excellence

F-GAVN
   * tarif promotionnel appliqué pendant la formation des élèves non brevetés


F-GAVN Planche